KDWH

David Wayne Hooks Memorial Airport

Houston, Texas, USA
METAR KDWH 151853Z 03006KT 10SM CLR 12/01 A3028 RMK AO2 SLP251 T01220011
Observed Flight Rules
Dec-15 @ 18:53 UTC (an hour ago) Visual Flight Rules
Wind Visibility Clouds
30° at 6 knots 10 miles
  • Clear skies
Temperatures Readings
Current 12°C / 54°F
Dewpoint 1°C / 34°F
Humidity 47%
Altimeter 30.28" Hg
Pressure 1025.1 hPa
Elevation 46
METAR KDWH 151853Z 03006KT 10SM CLR 12/01 A3028 RMK AO2 SLP251 T01220011
Observed Flight Rules
Dec-15 @ 18:53 UTC
(an hour ago)
VFR
Wind Visibility
30° at 6 knots 10 miles
Clouds
  • Clear skies
Temperature Dewpoint
12°C / 54°F 1°C / 34°F
Humidity Altimeter Pressure
47% 30.28" Hg 1025.1 hPa